Time;durP1;ratioP1;P1;durP2;ratioP2;P2;SDS_P1;SDS_P2;PMS_P1;PMS_P2;Temp;Humidity;BMP_temperature;BMP_pressure;BME280_temperature;BME280_humidity;BME280_pressure;Samples;Min_cycle;Max_cycle;Signal;HPM_P1;HPM_P2
2022/06/22 00:02:07;;;;;;;4.43;2.90;;;21.50;66.60;;;;;;5065610;28;20460;-83
2022/06/22 00:04:58;;;;;;;3.40;2.60;;;21.40;66.70;;;;;;5049848;28;20517;-84
2022/06/22 00:07:32;;;;;;;4.97;2.83;;;21.40;67.00;;;;;;5046216;28;20444;-84
2022/06/22 00:10:07;;;;;;;3.17;2.80;;;21.30;67.10;;;;;;5061063;28;20459;-84
2022/06/22 00:12:34;;;;;;;3.37;2.70;;;21.30;67.60;;;;;;5061128;28;21063;-85
2022/06/22 00:15:17;;;;;;;4.40;2.67;;;21.30;67.60;;;;;;5060541;28;20494;-84
2022/06/22 00:17:44;;;;;;;4.93;3.10;;;21.30;67.70;;;;;;5044396;28;20496;-85
2022/06/22 00:20:31;;;;;;;2.80;2.30;;;21.30;68.20;;;;;;5060387;28;20479;-83
2022/06/22 00:23:23;;;;;;;3.53;3.00;;;21.20;68.40;;;;;;5059283;28;20558;-86
2022/06/22 00:25:50;;;;;;;2.93;2.57;;;21.20;68.70;;;;;;5060012;28;20468;-85
2022/06/22 00:28:34;;;;;;;3.00;2.80;;;21.20;69.00;;;;;;5060660;28;20460;-86
2022/06/22 00:31:34;;;;;;;3.10;2.80;;;21.10;70.20;;;;;;5061061;28;20464;-84
2022/06/22 00:34:11;;;;;;;5.87;2.23;;;21.00;69.50;;;;;;5061336;28;20507;-85
2022/06/22 00:36:40;;;;;;;4.87;3.37;;;21.10;69.50;;;;;;5059881;28;20455;-84
2022/06/22 00:39:28;;;;;;;5.40;3.07;;;21.10;69.60;;;;;;5059676;28;20460;-85
2022/06/22 00:42:14;;;;;;;3.97;3.10;;;21.00;69.90;;;;;;5058727;28;20992;-84
2022/06/22 00:45:02;;;;;;;5.00;3.30;;;21.00;70.20;;;;;;5062833;28;20459;-84
2022/06/22 00:47:45;;;;;;;4.50;3.00;;;20.90;70.60;;;;;;5046832;28;20447;-83
2022/06/22 00:50:24;;;;;;;6.50;3.60;;;20.90;70.70;;;;;;5046339;28;20455;-85
2022/06/22 00:52:59;;;;;;;6.30;2.80;;;20.80;71.20;;;;;;5061151;28;20505;-83
2022/06/22 00:55:34;;;;;;;4.53;3.00;;;20.80;71.80;;;;;;5041948;28;20563;-84
2022/06/22 00:58:04;;;;;;;5.30;3.60;;;20.70;72.30;;;;;;5040719;28;20471;-84
2022/06/22 01:00:36;;;;;;;5.23;3.63;;;20.60;72.60;;;;;;5038377;28;20475;-84
2022/06/22 01:03:26;;;;;;;4.50;3.70;;;20.60;73.00;;;;;;5051556;28;20979;-83
2022/06/22 01:05:59;;;;;;;3.20;2.90;;;20.60;73.30;;;;;;5049180;28;20466;-84
2022/06/22 01:08:42;;;;;;;3.50;3.20;;;20.60;73.30;;;;;;5044231;28;20470;-83
2022/06/22 01:14:20;;;;;;;5.33;3.67;;;20.50;73.70;;;;;;5065625;28;20480;-85
2022/06/22 01:16:50;;;;;;;4.17;3.73;;;20.50;74.20;;;;;;5041907;28;20459;-86
2022/06/22 01:19:31;;;;;;;5.00;2.83;;;20.50;74.40;;;;;;5065230;28;20478;-83
2022/06/22 01:22:24;;;;;;;3.40;3.00;;;20.50;74.80;;;;;;5069454;28;20462;-82
2022/06/22 01:25:16;;;;;;;4.70;3.07;;;20.40;74.40;;;;;;5000530;28;20531;-84
2022/06/22 01:27:44;;;;;;;4.17;3.50;;;20.40;74.80;;;;;;5066188;28;20452;-84
2022/06/22 01:30:31;;;;;;;3.40;2.83;;;20.30;75.10;;;;;;5068460;28;20451;-83
2022/06/22 01:33:00;;;;;;;4.87;3.07;;;20.30;75.60;;;;;;5051093;28;20490;-81
2022/06/22 01:35:33;;;;;;;5.90;3.47;;;20.30;75.60;;;;;;5065952;28;20503;-82
2022/06/22 01:38:12;;;;;;;2.97;2.70;;;20.30;76.00;;;;;;5071146;28;20452;-85
2022/06/22 01:40:45;;;;;;;4.67;2.57;;;20.10;76.90;;;;;;5070293;28;20502;-84
2022/06/22 01:43:30;;;;;;;4.63;3.10;;;20.00;77.70;;;;;;5051699;28;20507;-81
2022/06/22 01:46:02;;;;;;;3.47;3.17;;;20.00;78.10;;;;;;5071161;28;20452;-85
2022/06/22 01:48:43;;;;;;;7.13;2.63;;;20.00;78.00;;;;;;5053240;28;20488;-84
2022/06/22 01:51:22;;;;;;;3.10;2.30;;;20.10;77.70;;;;;;5069796;28;20503;-84
2022/06/22 01:54:11;;;;;;;5.53;3.50;;;20.10;77.20;;;;;;5047430;28;20491;-86
2022/06/22 01:56:48;;;;;;;3.00;2.50;;;20.00;77.20;;;;;;5041537;28;20459;-85
2022/06/22 01:59:38;;;;;;;4.30;3.43;;;20.00;77.60;;;;;;5053741;28;20505;-83
2022/06/22 02:02:11;;;;;;;5.00;3.00;;;20.10;77.60;;;;;;5071436;28;20493;-83
2022/06/22 02:04:51;;;;;;;7.03;3.23;;;20.00;78.00;;;;;;5053164;28;20548;-82
2022/06/22 02:10:23;;;;;;;4.50;3.63;;;20.00;78.30;;;;;;5069226;28;20487;-85
2022/06/22 02:13:02;;;;;;;4.60;3.07;;;20.00;78.70;;;;;;5047926;28;20483;-85
2022/06/22 02:15:38;;;;;;;5.93;3.73;;;20.00;79.30;;;;;;5057006;28;20447;-87
2022/06/22 02:18:15;;;;;;;3.50;3.00;;;19.90;79.60;;;;;;5078617;28;20447;-84
2022/06/22 02:20:42;;;;;;;5.70;3.37;;;20.00;79.80;;;;;;5078787;28;20466;-86
2022/06/22 02:23:12;;;;;;;4.47;3.50;;;19.90;80.30;;;;;;5079795;28;20475;-82
2022/06/22 02:25:45;;;;;;;4.53;3.33;;;20.00;80.60;;;;;;5073389;28;20448;-84
2022/06/22 02:28:12;;;;;;;8.20;4.10;;;20.00;81.10;;;;;;5069732;28;20456;-82
2022/06/22 02:30:41;;;;;;;4.20;3.43;;;20.00;81.50;;;;;;5055271;28;21098;-87
2022/06/22 02:33:09;;;;;;;5.60;4.20;;;19.90;82.00;;;;;;5073377;28;20475;-85
2022/06/22 02:35:38;;;;;;;3.77;3.20;;;19.90;82.70;;;;;;5072487;28;20470;-83
2022/06/22 02:38:07;;;;;;;5.70;3.87;;;19.90;83.20;;;;;;5071481;28;20443;-80
2022/06/22 02:44:29;;;;;;;4.13;3.63;;;20.00;84.10;;;;;;5070626;28;20493;-84
2022/06/22 02:46:15;;;;;;;5.70;4.30;;;20.00;86.40;;;;;;5071073;28;20459;-84
2022/06/22 02:48:45;;;;;;;4.90;4.50;;;20.00;86.20;;;;;;5074732;28;20547;-83
2022/06/22 02:51:38;;;;;;;5.43;3.90;;;20.10;86.70;;;;;;5076264;28;20459;-85
2022/06/22 02:54:14;;;;;;;6.40;4.87;;;19.90;87.80;;;;;;5067871;28;20479;-82
2022/06/22 02:56:44;;;;;;;5.30;4.20;;;19.70;89.00;;;;;;5056457;28;20479;-83
2022/06/22 02:59:11;;;;;;;5.20;4.03;;;19.60;90.10;;;;;;5056069;28;20455;-82
2022/06/22 03:01:39;;;;;;;5.60;4.50;;;19.60;90.80;;;;;;5048322;28;20491;-82
2022/06/22 03:04:16;;;;;;;5.20;4.60;;;19.50;91.20;;;;;;5065702;28;20479;-82
2022/06/22 03:06:49;;;;;;;4.57;4.13;;;19.60;91.70;;;;;;5068928;28;20496;-85
2022/06/22 03:09:17;;;;;;;5.87;4.63;;;19.70;91.60;;;;;;5070920;28;20444;-84
2022/06/22 03:11:50;;;;;;;5.37;4.87;;;19.70;92.20;;;;;;5054804;28;20466;-84
2022/06/22 03:14:44;;;;;;;5.50;4.20;;;19.80;92.50;;;;;;5071665;28;20478;-84
2022/06/22 03:17:16;;;;;;;9.03;5.07;;;19.50;92.90;;;;;;5052491;28;20455;-83
2022/06/22 03:19:49;;;;;;;4.67;4.20;;;19.40;93.50;;;;;;5047828;28;20474;-82
2022/06/22 03:22:21;;;;;;;4.87;4.37;;;19.40;93.80;;;;;;5042154;28;20470;-81
2022/06/22 03:25:22;;;;;;;4.63;4.20;;;19.30;93.80;;;;;;5068632;28;20839;-84
2022/06/22 03:27:55;;;;;;;4.53;4.10;;;19.30;93.90;;;;;;5056771;28;20447;-82
2022/06/22 03:30:30;;;;;;;6.90;4.50;;;19.50;93.80;;;;;;5072301;28;20463;-82
2022/06/22 03:33:18;;;;;;;5.33;4.80;;;19.50;93.80;;;;;;5070623;28;20478;-80
2022/06/22 03:35:53;;;;;;;5.20;4.70;;;19.40;94.00;;;;;;5074685;28;20451;-85
2022/06/22 03:38:32;;;;;;;5.63;4.87;;;19.40;94.00;;;;;;5054929;28;20459;-84
2022/06/22 03:41:03;;;;;;;5.33;4.70;;;19.30;94.20;;;;;;5074939;28;20469;-84
2022/06/22 03:43:42;;;;;;;9.63;4.63;;;19.00;94.90;;;;;;5056718;28;20543;-84
2022/06/22 03:46:28;;;;;;;5.03;4.53;;;18.80;94.80;;;;;;5076980;28;20455;-83
2022/06/22 03:49:03;;;;;;;4.90;4.50;;;18.70;94.90;;;;;;5078183;28;20451;-85
2022/06/22 03:51:36;;;;;;;5.43;4.00;;;18.60;95.20;;;;;;5078135;28;20478;-85
2022/06/22 03:54:35;;;;;;;9.57;4.97;;;18.70;95.00;;;;;;5078196;28;20471;-84
2022/06/22 03:57:07;;;;;;;5.10;4.60;;;18.50;94.90;;;;;;5073509;28;20470;-83
2022/06/22 03:59:38;;;;;;;5.40;4.33;;;18.30;95.00;;;;;;5060144;28;20463;-85
2022/06/22 04:02:05;;;;;;;5.90;5.10;;;18.30;95.50;;;;;;5060198;28;20478;-85
2022/06/22 04:04:33;;;;;;;5.20;4.80;;;18.10;95.60;;;;;;5055060;28;20451;-84
2022/06/22 04:07:00;;;;;;;6.93;4.23;;;18.00;96.00;;;;;;5059836;28;20458;-83
2022/06/22 04:09:28;;;;;;;5.30;4.40;;;18.00;96.20;;;;;;5059554;28;20456;-84
2022/06/22 04:12:10;;;;;;;8.57;4.50;;;18.00;96.00;;;;;;5060371;28;20487;-84
2022/06/22 04:14:43;;;;;;;7.17;4.03;;;18.10;95.80;;;;;;5060159;28;20458;-85
2022/06/22 04:17:36;;;;;;;4.60;4.10;;;18.20;95.40;;;;;;5076807;28;20482;-83
2022/06/22 04:20:05;;;;;;;6.43;4.37;;;18.20;95.10;;;;;;5059286;28;20649;-85
2022/06/22 04:22:36;;;;;;;4.50;3.30;;;18.30;95.10;;;;;;5061591;28;20483;-83
2022/06/22 04:25:28;;;;;;;5.50;4.20;;;18.30;94.80;;;;;;5058966;28;20461;-83
2022/06/22 04:27:58;;;;;;;4.33;3.93;;;18.40;94.30;;;;;;5076805;28;20505;-84
2022/06/22 04:30:31;;;;;;;4.63;3.87;;;18.40;94.10;;;;;;5077531;28;20463;-85
2022/06/22 04:33:07;;;;;;;5.33;4.50;;;18.60;94.10;;;;;;5081568;28;20483;-82
2022/06/22 04:35:53;;;;;;;5.17;4.53;;;18.60;94.10;;;;;;5076065;28;20458;-83
2022/06/22 04:38:44;;;;;;;5.07;4.63;;;18.70;94.50;;;;;;5077902;28;20447;-85
2022/06/22 04:41:21;;;;;;;4.90;4.47;;;18.60;94.30;;;;;;5058534;28;20513;-82
2022/06/22 04:43:49;;;;;;;5.17;4.67;;;18.60;94.70;;;;;;5048089;28;20470;-84
2022/06/22 04:46:22;;;;;;;6.73;4.70;;;18.60;94.70;;;;;;5063823;28;20473;-85
2022/06/22 04:48:51;;;;;;;4.60;4.20;;;18.70;94.70;;;;;;5069528;28;20490;-85
2022/06/22 04:51:27;;;;;;;6.43;4.60;;;18.90;94.40;;;;;;5068430;28;20482;-83
2022/06/22 04:54:02;;;;;;;5.70;5.20;;;18.80;94.30;;;;;;5047621;28;20486;-83
2022/06/22 04:56:36;;;;;;;11.77;5.17;;;18.90;94.00;;;;;;5069074;28;20471;-83
2022/06/22 04:59:04;;;;;;;6.23;5.63;;;18.90;94.00;;;;;;5052864;28;20464;-82
2022/06/22 05:01:39;;;;;;;5.07;4.50;;;18.90;94.10;;;;;;5074929;28;20543;-85
2022/06/22 05:04:12;;;;;;;4.63;4.27;;;18.90;94.00;;;;;;5055881;28;20505;-82
2022/06/22 05:07:06;;;;;;;7.30;5.67;;;19.10;94.00;;;;;;5074323;28;20469;-83
2022/06/22 05:09:54;;;;;;;10.53;5.37;;;19.40;94.40;;;;;;5071981;28;20486;-82
2022/06/22 05:12:25;;;;;;;5.53;5.03;;;19.30;95.10;;;;;;5059778;28;20511;-83
2022/06/22 05:14:55;;;;;;;9.80;9.00;;;19.30;95.50;;;;;;5081966;28;20460;-82
2022/06/22 05:17:32;;;;;;;6.10;5.60;;;19.50;95.30;;;;;;5068094;28;20508;-82
2022/06/22 05:20:13;;;;;;;7.47;5.80;;;19.50;94.90;;;;;;5068363;28;20439;-84
2022/06/22 05:22:39;;;;;;;8.10;6.07;;;19.60;94.60;;;;;;5066324;28;20522;-82
2022/06/22 05:25:11;;;;;;;11.50;10.37;;;19.50;94.80;;;;;;5069222;28;20447;-85
2022/06/22 05:27:50;;;;;;;6.30;5.70;;;19.50;95.00;;;;;;5087885;28;20455;-87
2022/06/22 05:30:17;;;;;;;7.53;6.73;;;19.60;95.00;;;;;;5083476;28;20479;-84
2022/06/22 05:32:50;;;;;;;12.23;6.90;;;19.80;94.80;;;;;;5078510;28;20570;-83
2022/06/22 05:35:27;;;;;;;7.80;7.00;;;19.80;94.80;;;;;;5054654;28;20455;-84
2022/06/22 05:37:56;;;;;;;7.67;6.97;;;19.80;94.50;;;;;;5071621;28;20451;-82
2022/06/22 05:40:26;;;;;;;6.93;6.23;;;19.70;94.70;;;;;;5073423;28;20465;-83
2022/06/22 05:42:54;;;;;;;6.30;5.70;;;19.60;94.80;;;;;;5053524;28;21136;-85
2022/06/22 05:45:25;;;;;;;8.20;6.47;;;19.70;95.00;;;;;;5057547;28;20459;-83
2022/06/22 05:47:53;;;;;;;8.80;6.83;;;19.50;94.70;;;;;;5053286;28;20470;-84
2022/06/22 05:50:36;;;;;;;8.13;7.20;;;19.80;94.80;;;;;;5069233;28;20466;-81
2022/06/22 05:53:10;;;;;;;6.83;6.30;;;19.70;94.50;;;;;;5070810;28;20522;-85
2022/06/22 05:55:46;;;;;;;7.40;6.70;;;19.60;94.70;;;;;;5074908;28;20471;-84
2022/06/22 05:58:36;;;;;;;8.87;6.83;;;19.60;94.80;;;;;;5051613;28;20474;-84
2022/06/22 06:01:05;;;;;;;8.27;7.47;;;19.60;94.60;;;;;;5054285;28;20963;-82
2022/06/22 06:04:18;;;;;;;7.53;6.83;;;19.80;94.90;;;;;;5073685;28;20467;-81
2022/06/22 06:06:46;;;;;;;7.10;5.97;;;19.80;94.80;;;;;;5052767;28;20450;-85
2022/06/22 06:09:20;;;;;;;7.77;7.07;;;19.80;94.80;;;;;;5073173;28;20463;-83
2022/06/22 06:11:56;;;;;;;9.73;6.70;;;19.70;94.90;;;;;;5078037;28;20540;-83
2022/06/22 06:14:28;;;;;;;7.20;6.27;;;19.90;94.20;;;;;;5087062;28;20485;-86
2022/06/22 06:16:58;;;;;;;7.43;6.73;;;20.00;93.50;;;;;;5072733;28;20522;-84
2022/06/22 06:19:30;;;;;;;7.07;6.30;;;19.90;92.90;;;;;;5081383;28;20710;-81
2022/06/22 06:22:01;;;;;;;7.80;6.70;;;20.00;92.90;;;;;;5077134;28;21034;-81
2022/06/22 06:24:33;;;;;;;6.90;6.30;;;20.00;92.30;;;;;;5081052;28;20539;-83
2022/06/22 06:30:19;;;;;;;6.77;6.20;;;19.80;94.00;;;;;;5086072;28;20466;-80
2022/06/22 06:32:52;;;;;;;11.10;7.00;;;19.90;93.90;;;;;;5081297;28;20538;-82
2022/06/22 06:35:27;;;;;;;7.90;7.10;;;20.10;93.30;;;;;;5085008;28;20541;-83
2022/06/22 06:38:18;;;;;;;7.63;6.27;;;20.00;92.60;;;;;;5064560;28;20936;-82
2022/06/22 06:41:08;;;;;;;6.90;6.30;;;19.90;92.90;;;;;;5092139;28;20484;-81
2022/06/22 06:44:00;;;;;;;9.33;6.77;;;19.80;93.40;;;;;;5094878;28;20477;-83
2022/06/22 06:46:33;;;;;;;7.07;6.40;;;20.00;92.90;;;;;;5097445;28;20432;-81
2022/06/22 06:49:34;;;;;;;7.07;6.30;;;20.10;92.80;;;;;;5080710;28;20420;-84
2022/06/22 06:52:22;;;;;;;8.00;7.20;;;20.00;92.70;;;;;;5096433;28;20584;-86
2022/06/22 06:55:20;;;;;;;9.47;7.00;;;19.70;93.20;;;;;;5077789;28;20522;-86
2022/06/22 06:58:01;;;;;;;7.63;5.93;;;19.80;93.80;;;;;;5095550;28;20494;-85
2022/06/22 07:00:30;;;;;;;7.00;6.17;;;20.10;92.80;;;;;;5090309;28;20443;-85
2022/06/22 07:02:57;;;;;;;11.37;6.47;;;20.10;92.10;;;;;;5085768;28;20546;-85
2022/06/22 07:05:28;;;;;;;8.10;6.43;;;20.00;91.60;;;;;;5077835;28;20587;-86
2022/06/22 07:08:13;;;;;;;7.70;6.27;;;20.00;92.30;;;;;;5074889;28;20463;-85
2022/06/22 07:11:34;;;;;;;6.47;5.57;;;20.00;92.00;;;;;;5078795;28;20446;-84
2022/06/22 07:14:12;;;;;;;6.17;5.57;;;20.10;91.40;;;;;;5080856;28;20473;-84
2022/06/22 07:16:39;;;;;;;8.80;5.93;;;20.40;90.70;;;;;;5058024;28;20459;-84
2022/06/22 07:19:42;;;;;;;9.00;5.17;;;20.40;91.00;;;;;;5085116;28;20439;-83
2022/06/22 07:22:25;;;;;;;6.87;6.13;;;20.40;90.70;;;;;;5043706;28;20474;-83
2022/06/22 07:25:22;;;;;;;7.40;6.70;;;20.70;90.20;;;;;;5053385;28;21361;-83
2022/06/22 07:28:03;;;;;;;6.10;4.73;;;20.80;89.60;;;;;;5068953;28;20466;-84
2022/06/22 07:30:42;;;;;;;7.53;6.30;;;21.00;88.90;;;;;;5071843;28;20451;-83
2022/06/22 07:33:24;;;;;;;7.87;5.40;;;21.10;87.10;;;;;;5045349;28;20487;-83
2022/06/22 07:35:59;;;;;;;7.70;6.50;;;21.10;88.80;;;;;;5066112;28;20460;-83
2022/06/22 07:38:43;;;;;;;8.10;5.50;;;21.20;89.60;;;;;;5064721;28;20454;-84
2022/06/22 07:41:18;;;;;;;7.83;6.20;;;21.30;90.10;;;;;;5063792;28;20461;-84
2022/06/22 07:43:55;;;;;;;7.00;5.73;;;21.50;89.60;;;;;;5062665;28;20851;-85
2022/06/22 07:46:43;;;;;;;9.00;5.23;;;21.40;90.00;;;;;;5063063;28;20446;-85
2022/06/22 07:49:17;;;;;;;5.63;5.07;;;21.40;90.60;;;;;;5063529;28;20483;-83
2022/06/22 07:51:53;;;;;;;5.47;4.83;;;21.40;90.20;;;;;;5043961;28;20464;-84
2022/06/22 07:54:49;;;;;;;6.03;4.70;;;21.70;88.10;;;;;;5043481;28;20493;-83
2022/06/22 07:57:40;;;;;;;3.93;3.53;;;21.60;88.70;;;;;;5063879;28;20458;-84
2022/06/22 08:00:16;;;;;;;4.00;3.60;;;21.70;85.10;;;;;;5061429;28;20475;-82
2022/06/22 08:03:00;;;;;;;7.03;4.90;;;21.70;83.80;;;;;;5064600;28;20483;-82
2022/06/22 08:05:33;;;;;;;3.83;3.47;;;21.90;81.30;;;;;;5075215;28;20444;-82
2022/06/22 08:08:10;;;;;;;7.63;4.57;;;22.10;80.00;;;;;;5069498;28;20557;-83
2022/06/22 08:10:47;;;;;;;3.97;3.27;;;22.20;79.00;;;;;;5064307;28;20447;-84
2022/06/22 08:13:24;;;;;;;3.93;3.53;;;22.10;80.20;;;;;;5064770;28;20509;-82
2022/06/22 08:15:59;;;;;;;6.67;4.47;;;22.50;77.20;;;;;;5065859;28;20505;-82
2022/06/22 08:18:28;;;;;;;6.37;4.53;;;22.50;76.20;;;;;;5062018;28;20462;-84
2022/06/22 08:20:57;;;;;;;3.97;3.67;;;22.10;77.90;;;;;;5063336;28;20451;-83
2022/06/22 08:23:27;;;;;;;4.67;4.23;;;22.40;78.80;;;;;;5061286;28;20609;-84
2022/06/22 08:26:02;;;;;;;4.57;4.17;;;22.70;77.30;;;;;;5061380;28;20447;-85
2022/06/22 08:28:30;;;;;;;3.90;3.50;;;23.00;75.40;;;;;;5059858;28;20520;-85
2022/06/22 08:30:57;;;;;;;5.20;4.03;;;22.90;74.20;;;;;;5060820;28;20439;-83
2022/06/22 08:33:34;;;;;;;3.87;3.47;;;23.00;74.30;;;;;;5042271;28;20483;-84
2022/06/22 08:36:12;;;;;;;4.07;3.60;;;23.50;72.50;;;;;;5040820;28;21206;-82
2022/06/22 08:38:55;;;;;;;3.03;2.83;;;23.60;70.90;;;;;;5059804;28;20562;-85
2022/06/22 08:41:34;;;;;;;2.87;2.60;;;23.50;70.00;;;;;;5060516;28;20470;-85
2022/06/22 08:44:21;;;;;;;3.07;2.87;;;23.80;67.80;;;;;;5060647;28;22535;-83
2022/06/22 08:47:06;;;;;;;3.40;3.10;;;23.90;67.10;;;;;;5062594;28;20451;-84
2022/06/22 08:50:02;;;;;;;4.47;2.80;;;24.30;66.60;;;;;;5062248;28;20548;-82
2022/06/22 08:52:47;;;;;;;4.30;3.10;;;24.70;64.90;;;;;;5043304;28;20464;-84
2022/06/22 08:55:41;;;;;;;5.40;3.00;;;24.80;63.80;;;;;;5050708;28;20463;-83
2022/06/22 08:58:31;;;;;;;5.03;3.53;;;25.30;60.80;;;;;;5063834;28;20467;-83
2022/06/22 09:01:30;;;;;;;4.37;2.80;;;24.80;60.70;;;;;;5046480;28;20454;-83
2022/06/22 09:04:29;;;;;;;3.03;2.70;;;24.30;62.20;;;;;;5055021;28;20499;-83
2022/06/22 09:07:25;;;;;;;4.40;3.33;;;24.30;63.00;;;;;;5051349;28;20940;-84
2022/06/22 09:10:20;;;;;;;3.80;3.07;;;25.10;63.60;;;;;;5072428;28;20452;-84
2022/06/22 09:13:15;;;;;;;4.43;3.40;;;25.50;59.90;;;;;;5031582;28;20487;-83
2022/06/22 09:16:02;;;;;;;3.30;2.93;;;26.30;60.80;;;;;;5074038;28;20448;-83
2022/06/22 09:19:07;;;;;;;6.23;3.10;;;26.60;59.40;;;;;;5051124;28;20521;-83
2022/06/22 09:21:50;;;;;;;4.80;3.00;;;27.30;57.30;;;;;;5067824;28;20466;-83
2022/06/22 09:24:33;;;;;;;4.47;2.90;;;26.90;56.80;;;;;;5042313;28;20502;-84
2022/06/22 09:27:26;;;;;;;4.53;2.83;;;26.60;57.40;;;;;;5067552;28;20447;-83
2022/06/22 09:30:04;;;;;;;4.30;3.23;;;28.40;54.80;;;;;;5064567;28;20456;-84
2022/06/22 09:32:40;;;;;;;3.00;2.80;;;29.00;52.10;;;;;;5064500;28;20471;-84
2022/06/22 09:35:28;;;;;;;3.30;3.00;;;28.90;51.90;;;;;;5069811;28;20478;-86
2022/06/22 09:38:16;;;;;;;5.07;3.30;;;29.30;50.60;;;;;;5072025;28;20455;-85
2022/06/22 09:41:13;;;;;;;4.27;2.70;;;29.70;49.70;;;;;;5090877;28;20446;-85
2022/06/22 09:44:05;;;;;;;3.93;3.30;;;29.30;49.70;;;;;;5069444;28;20474;-87
2022/06/22 09:47:09;;;;;;;4.13;3.07;;;29.80;48.40;;;;;;5070334;28;20454;-86
2022/06/22 09:49:54;;;;;;;3.50;3.20;;;30.50;47.30;;;;;;5048673;28;20444;-84
2022/06/22 09:52:30;;;;;;;2.90;2.40;;;31.40;45.50;;;;;;5062679;28;20454;-83
2022/06/22 09:58:01;;;;;;;4.70;2.80;;;31.60;44.00;;;;;;5061017;28;20494;-84
2022/06/22 10:01:06;;;;;;;2.43;2.23;;;31.60;43.30;;;;;;5061028;28;20452;-83
2022/06/22 10:04:04;;;;;;;5.37;2.57;;;31.30;43.30;;;;;;4961848;28;20491;-83
2022/06/22 10:06:46;;;;;;;2.30;2.10;;;31.50;43.00;;;;;;5057218;28;20451;-85
2022/06/22 10:09:28;;;;;;;2.47;2.27;;;32.70;41.40;;;;;;5038091;28;20454;-84
2022/06/22 10:12:02;;;;;;;2.90;2.10;;;32.40;40.80;;;;;;5059087;28;20550;-83
2022/06/22 10:14:47;;;;;;;3.13;2.20;;;32.50;40.60;;;;;;5041565;28;20474;-83
2022/06/22 10:17:24;;;;;;;2.60;2.40;;;32.00;40.00;;;;;;5059583;28;20474;-86
2022/06/22 10:20:16;;;;;;;2.90;2.70;;;30.90;40.80;;;;;;5055594;28;20452;-85
2022/06/22 10:22:52;;;;;;;2.50;1.83;;;30.50;41.80;;;;;;5058743;28;20483;-84
2022/06/22 10:25:53;;;;;;;3.23;1.63;;;31.20;41.00;;;;;;5059297;28;20447;-85
2022/06/22 10:28:36;;;;;;;3.57;1.87;;;31.90;39.80;;;;;;5059245;28;20538;-83
2022/06/22 10:31:22;;;;;;;13.83;3.40;;;32.40;40.00;;;;;;5059903;28;20861;-84
2022/06/22 10:34:06;;;;;;;3.80;2.13;;;32.90;39.10;;;;;;5058676;28;20844;-84
2022/06/22 10:37:02;;;;;;;3.37;2.03;;;32.80;38.80;;;;;;5063192;28;20460;-83
2022/06/22 10:39:30;;;;;;;2.50;2.30;;;32.40;38.40;;;;;;5062428;28;20462;-84
2022/06/22 10:45:29;;;;;;;3.23;2.13;;;32.50;39.40;;;;;;5056361;28;21294;-84
2022/06/22 10:48:39;;;;;;;2.50;2.30;;;34.00;36.90;;;;;;5057100;28;20539;-85
2022/06/22 10:51:23;;;;;;;2.40;2.20;;;34.20;35.40;;;;;;5057186;28;20533;-83
2022/06/22 10:54:06;;;;;;;2.70;2.03;;;34.20;35.30;;;;;;5057443;28;20475;-84
2022/06/22 10:56:54;;;;;;;1.90;1.80;;;34.20;35.10;;;;;;5055312;28;20474;-84
2022/06/22 10:59:40;;;;;;;5.27;2.10;;;33.70;34.90;;;;;;5057513;28;20969;-83
2022/06/22 11:02:59;;;;;;;2.07;1.97;;;33.20;35.40;;;;;;5057545;28;20498;-83
2022/06/22 11:05:37;;;;;;;4.40;2.03;;;33.10;35.20;;;;;;5061084;28;20435;-83
2022/06/22 11:08:16;;;;;;;2.23;1.60;;;33.20;35.60;;;;;;5061502;28;20442;-84
2022/06/22 11:11:06;;;;;;;3.83;1.90;;;33.30;36.30;;;;;;5062338;28;20478;-84
2022/06/22 11:13:59;;;;;;;2.50;2.30;;;34.00;35.80;;;;;;5063020;28;20474;-85
2022/06/22 11:16:53;;;;;;;2.23;2.03;;;34.10;35.40;;;;;;5062777;28;20450;-84
2022/06/22 11:19:29;;;;;;;2.90;1.90;;;33.80;35.60;;;;;;5039578;28;20478;-84
2022/06/22 11:22:38;;;;;;;1.90;1.80;;;33.60;35.50;;;;;;5060093;28;20454;-84
2022/06/22 11:25:17;;;;;;;2.53;2.27;;;33.40;36.10;;;;;;5040603;28;20548;-82
2022/06/22 11:31:06;;;;;;;2.00;1.90;;;34.30;34.30;;;;;;5061583;28;20500;-84
2022/06/22 11:33:57;;;;;;;1.93;1.83;;;34.00;34.30;;;;;;5063373;28;20997;-84
2022/06/22 11:36:47;;;;;;;2.17;1.97;;;34.20;34.00;;;;;;5062445;28;20457;-85
2022/06/22 11:39:53;;;;;;;2.40;2.20;;;34.40;33.80;;;;;;5062697;28;20443;-84
2022/06/22 11:42:52;;;;;;;2.10;1.90;;;35.10;33.80;;;;;;5061717;28;20460;-84
2022/06/22 11:45:51;;;;;;;3.60;1.73;;;35.40;33.50;;;;;;5062077;28;20459;-82
2022/06/22 11:48:56;;;;;;;2.07;1.97;;;34.40;34.00;;;;;;5060138;28;20455;-84
2022/06/22 11:51:44;;;;;;;2.53;2.00;;;34.90;34.50;;;;;;5064844;28;20440;-83
2022/06/22 11:54:30;;;;;;;2.43;2.23;;;35.00;33.30;;;;;;5063055;28;20483;-84
2022/06/22 11:56:59;;;;;;;1.80;1.70;;;34.70;33.50;;;;;;5045809;28;20478;-84
2022/06/22 11:59:57;;;;;;;2.13;1.90;;;33.80;33.30;;;;;;5043911;28;20971;-84
2022/06/22 12:03:01;;;;;;;1.73;1.63;;;33.60;33.80;;;;;;5062158;28;20456;-85
2022/06/22 12:05:51;;;;;;;2.37;2.20;;;34.40;33.80;;;;;;5040820;28;20875;-85
2022/06/22 12:08:44;;;;;;;2.27;2.17;;;34.70;33.90;;;;;;5060332;28;20448;-83
2022/06/22 12:11:20;;;;;;;2.37;2.17;;;34.70;33.80;;;;;;5041413;28;20449;-85
2022/06/22 12:16:52;;;;;;;3.23;1.90;;;33.90;34.70;;;;;;5062067;28;20435;-83
2022/06/22 12:19:40;;;;;;;3.20;2.03;;;34.50;33.10;;;;;;5060851;28;20459;-84
2022/06/22 12:22:30;;;;;;;3.20;1.93;;;34.30;33.60;;;;;;5044742;28;20450;-82
2022/06/22 12:25:22;;;;;;;3.83;3.50;;;34.00;33.70;;;;;;5055273;28;20467;-84
2022/06/22 12:28:36;;;;;;;2.00;1.90;;;33.60;34.20;;;;;;5061953;28;20463;-82
2022/06/22 12:31:15;;;;;;;2.37;2.27;;;32.60;35.90;;;;;;5040485;28;20555;-82
2022/06/22 12:34:03;;;;;;;2.17;2.00;;;32.80;36.10;;;;;;5061128;28;21028;-81
2022/06/22 12:36:45;;;;;;;3.03;2.40;;;33.00;36.10;;;;;;5061770;28;20459;-84
2022/06/22 12:39:25;;;;;;;6.43;2.10;;;32.80;35.50;;;;;;5060995;28;20444;-83
2022/06/22 12:42:14;;;;;;;2.03;1.93;;;32.40;36.00;;;;;;5039672;28;20458;-84
2022/06/22 12:45:13;;;;;;;5.30;2.17;;;32.10;36.60;;;;;;5059960;28;20493;-83
2022/06/22 12:48:26;;;;;;;2.17;2.07;;;32.00;37.40;;;;;;5025437;28;20462;-83
2022/06/22 12:51:12;;;;;;;1.97;1.87;;;32.60;37.10;;;;;;5058212;28;21648;-82
2022/06/22 12:53:51;;;;;;;2.40;2.20;;;32.90;36.70;;;;;;5058171;28;20608;-83
2022/06/22 12:56:45;;;;;;;3.20;2.03;;;32.90;36.60;;;;;;5041330;28;20471;-82
2022/06/22 12:59:27;;;;;;;2.40;2.20;;;33.20;36.10;;;;;;5044040;28;20455;-85
2022/06/22 13:01:54;;;;;;;2.13;1.97;;;33.50;34.70;;;;;;5058229;28;20529;-84
2022/06/22 13:04:29;;;;;;;2.60;2.10;;;33.50;34.80;;;;;;5058277;28;20494;-83
2022/06/22 13:07:00;;;;;;;2.60;2.23;;;33.80;34.00;;;;;;5056776;28;20530;-84
2022/06/22 13:09:28;;;;;;;3.73;2.10;;;33.00;34.60;;;;;;5060364;28;20439;-84
2022/06/22 13:11:59;;;;;;;2.97;2.17;;;32.40;35.00;;;;;;5057351;28;20515;-85
2022/06/22 13:14:39;;;;;;;2.30;1.97;;;31.90;35.80;;;;;;5056173;28;20478;-82
2022/06/22 13:17:40;;;;;;;2.20;2.10;;;31.80;35.90;;;;;;5058133;28;20813;-82
2022/06/22 13:20:19;;;;;;;1.67;1.60;;;31.60;36.30;;;;;;4970333;28;20870;-83
2022/06/22 13:22:57;;;;;;;4.30;2.10;;;31.90;37.50;;;;;;5060612;28;20483;-85
2022/06/22 13:25:40;;;;;;;1.83;1.73;;;32.30;36.90;;;;;;5059536;28;20506;-85
2022/06/22 13:28:27;;;;;;;2.10;2.00;;;32.80;36.00;;;;;;5041477;28;20459;-82
2022/06/22 13:31:03;;;;;;;1.87;1.70;;;32.80;36.70;;;;;;5061655;28;20470;-82
2022/06/22 13:33:38;;;;;;;3.30;2.67;;;32.90;36.70;;;;;;5062262;28;20498;-82
2022/06/22 13:36:12;;;;;;;3.47;2.37;;;33.30;35.90;;;;;;5063712;28;20532;-84
2022/06/22 13:39:01;;;;;;;2.40;2.20;;;33.30;35.90;;;;;;5063948;28;20471;-84
2022/06/22 13:41:56;;;;;;;2.60;2.40;;;33.10;35.70;;;;;;5060902;28;20459;-84
2022/06/22 13:44:42;;;;;;;2.80;2.60;;;32.70;36.40;;;;;;5064533;28;20483;-87
2022/06/22 13:47:23;;;;;;;3.90;2.27;;;32.20;36.90;;;;;;5055653;28;20450;-81
2022/06/22 13:50:20;;;;;;;4.00;2.57;;;32.10;37.00;;;;;;5080843;28;20437;-82
2022/06/22 13:52:50;;;;;;;2.70;2.50;;;32.00;36.60;;;;;;5072186;28;20467;-84
2022/06/22 13:55:38;;;;;;;3.03;2.40;;;31.90;35.80;;;;;;5063535;28;20439;-82
2022/06/22 13:58:27;;;;;;;4.47;2.10;;;31.50;37.10;;;;;;5043255;28;20471;-83
2022/06/22 14:01:19;;;;;;;3.10;2.90;;;31.40;38.00;;;;;;5065262;28;21031;-83
2022/06/22 14:03:53;;;;;;;3.67;3.27;;;31.30;37.00;;;;;;5061654;28;20511;-82
2022/06/22 14:06:29;;;;;;;2.77;2.40;;;31.30;37.20;;;;;;5063450;28;20902;-83
2022/06/22 14:09:06;;;;;;;3.00;2.13;;;31.30;37.30;;;;;;5064479;28;20446;-83
2022/06/22 14:11:46;;;;;;;2.60;2.40;;;31.40;38.00;;;;;;5063611;28;20455;-84
2022/06/22 14:14:22;;;;;;;1.90;1.80;;;31.50;38.40;;;;;;5063445;28;21010;-83
2022/06/22 14:16:56;;;;;;;2.47;1.90;;;31.70;37.60;;;;;;5045194;28;20451;-85
2022/06/22 14:19:40;;;;;;;2.50;2.30;;;31.90;37.70;;;;;;5064695;28;20452;-85
2022/06/22 14:22:24;;;;;;;2.50;2.30;;;31.90;36.60;;;;;;5068054;28;20907;-83